Aeroporto :
LOGIN :

Iscrizione | Disclaimer

   EN    FR    IT 

 










Sommario :    VFR   VFR Marginale   IFR   IFR Intensivo   IFR Molto Intensivo
Visibilità : 
Base nubi : 
>= 8 km
>= 3000ft
5 / 8 km
1000 / 3000 ft
1500m / 5 km
500 / 1000 ft
800 / 1500m
200 / 500 ft
< 800m
< 200 ft
Simboli :   Temporali  Nebbia  Neve Forte  Precipitazioni Forti  Vento > 20 kt
SIGMETs :   Varie  Temporali  Ghiacco  Turbolenza  Onda orograficha  Ceneri Vulcaniche







- Altitudine del aeroporto : 1831 ft
- Codice IATA : TJK


LTAW - Tokat

ULTIMO METAR :
  • 240550Z 02004KT 350V060 9999 FEW015 BKN034 BKN090 17/15 Q1013 RESHRA

METARs OBSOLETI :
  • 240450Z 24007KT 210V270 9999 -SHRA FEW025 BKN034 BKN090 14/14 Q1014

TAF TAF LTAW
Valido dal 24 a 06 ore il 24 a 15 ore UTC


240440Z 2406/2415 23008KT 9999 SCT040 BKN100
TEMPO 2406/2409 -SHRA FEW030CB BKN035
TEMPO 2410/2414 23015G35KT -TSRA FEW030CB BKN035
Nessun NOTAM noto per questo aeroporto.



MetMap, La meteo Aeronautica in un colpo d'occhio ! - Copyright ORBIFLY Dicembre 2007 - Disclaimer

ORBIFLY MET'MAP TEAM :

Programmazione e sviluppo : Alexandra Zaïnal
Concezione e sviluppo : Baudouin d'Aumeries
Co-Programmazione e sviluppo : Marc-Olivier Méhu
Supporto tecnico e logistico : Manuel Goepfert
Aiuto per la traduzione : Arnaldo La Scala

Contatto : metmap@orbifly.com




FONTI E CREDITI :

   NOAA